sensor_id;sensor_type;location;lat;lon;timestamp;P1;durP1;ratioP1;P2;durP2;ratioP2
77423;SDS011;66494;47.172;14.678;2023-02-28T00:00:46;6.03;;;2.92;;
77423;SDS011;66494;47.172;14.678;2023-02-28T00:01:46;6.72;;;3.58;;
77423;SDS011;66494;47.172;14.678;2023-02-28T00:02:47;6.18;;;3.83;;
77423;SDS011;66494;47.172;14.678;2023-02-28T00:03:47;5.72;;;4.28;;
77423;SDS011;66494;47.172;14.678;2023-02-28T00:05:52;6.22;;;3.85;;
77423;SDS011;66494;47.172;14.678;2023-02-28T00:06:53;5.55;;;4.03;;
77423;SDS011;66494;47.172;14.678;2023-02-28T00:07:53;5.68;;;3.75;;
77423;SDS011;66494;47.172;14.678;2023-02-28T00:08:54;6.00;;;4.05;;
77423;SDS011;66494;47.172;14.678;2023-02-28T00:09:55;5.22;;;3.58;;
77423;SDS011;66494;47.172;14.678;2023-02-28T00:10:55;7.82;;;4.93;;
77423;SDS011;66494;47.172;14.678;2023-02-28T00:11:55;7.90;;;3.92;;
77423;SDS011;66494;47.172;14.678;2023-02-28T00:13:56;4.97;;;3.70;;
77423;SDS011;66494;47.172;14.678;2023-02-28T00:14:56;5.68;;;4.22;;
77423;SDS011;66494;47.172;14.678;2023-02-28T00:16:01;5.13;;;4.00;;
77423;SDS011;66494;47.172;14.678;2023-02-28T00:17:01;8.57;;;4.32;;
77423;SDS011;66494;47.172;14.678;2023-02-28T00:18:02;5.22;;;3.67;;
77423;SDS011;66494;47.172;14.678;2023-02-28T00:19:03;7.80;;;4.40;;
77423;SDS011;66494;47.172;14.678;2023-02-28T00:20:03;7.55;;;4.25;;
77423;SDS011;66494;47.172;14.678;2023-02-28T00:21:11;5.00;;;3.83;;
77423;SDS011;66494;47.172;14.678;2023-02-28T00:22:11;6.82;;;4.55;;
77423;SDS011;66494;47.172;14.678;2023-02-28T00:23:12;4.95;;;3.55;;
77423;SDS011;66494;47.172;14.678;2023-02-28T00:25:13;7.72;;;4.15;;
77423;SDS011;66494;47.172;14.678;2023-02-28T00:26:14;5.20;;;3.88;;
77423;SDS011;66494;47.172;14.678;2023-02-28T00:27:14;3.53;;;3.03;;
77423;SDS011;66494;47.172;14.678;2023-02-28T00:28:14;7.40;;;3.45;;
77423;SDS011;66494;47.172;14.678;2023-02-28T00:29:15;4.57;;;3.22;;
77423;SDS011;66494;47.172;14.678;2023-02-28T00:30:16;5.15;;;3.55;;
77423;SDS011;66494;47.172;14.678;2023-02-28T00:31:17;6.50;;;3.90;;
77423;SDS011;66494;47.172;14.678;2023-02-28T00:32:17;6.45;;;3.70;;
77423;SDS011;66494;47.172;14.678;2023-02-28T00:33:18;8.63;;;3.92;;
77423;SDS011;66494;47.172;14.678;2023-02-28T00:34:19;7.35;;;3.38;;
77423;SDS011;66494;47.172;14.678;2023-02-28T00:35:19;4.00;;;3.03;;
77423;SDS011;66494;47.172;14.678;2023-02-28T00:37:19;6.25;;;3.30;;
77423;SDS011;66494;47.172;14.678;2023-02-28T00:38:19;4.20;;;3.13;;
77423;SDS011;66494;47.172;14.678;2023-02-28T00:39:20;4.65;;;3.33;;
77423;SDS011;66494;47.172;14.678;2023-02-28T00:40:20;5.68;;;4.20;;
77423;SDS011;66494;47.172;14.678;2023-02-28T00:42:20;5.90;;;3.50;;
77423;SDS011;66494;47.172;14.678;2023-02-28T00:43:21;4.78;;;3.10;;
77423;SDS011;66494;47.172;14.678;2023-02-28T00:44:21;5.45;;;3.05;;
77423;SDS011;66494;47.172;14.678;2023-02-28T00:45:21;4.90;;;3.05;;
77423;SDS011;66494;47.172;14.678;2023-02-28T00:47:22;6.07;;;3.33;;
77423;SDS011;66494;47.172;14.678;2023-02-28T00:48:22;5.35;;;3.20;;
77423;SDS011;66494;47.172;14.678;2023-02-28T00:49:22;5.40;;;3.35;;
77423;SDS011;66494;47.172;14.678;2023-02-28T00:50:23;7.10;;;3.38;;
77423;SDS011;66494;47.172;14.678;2023-02-28T00:51:23;4.38;;;3.70;;
77423;SDS011;66494;47.172;14.678;2023-02-28T00:53:23;5.07;;;2.90;;
77423;SDS011;66494;47.172;14.678;2023-02-28T00:54:24;4.45;;;2.95;;
77423;SDS011;66494;47.172;14.678;2023-02-28T00:55:24;3.97;;;2.95;;
77423;SDS011;66494;47.172;14.678;2023-02-28T00:56:24;6.55;;;3.40;;
77423;SDS011;66494;47.172;14.678;2023-02-28T00:57:24;4.47;;;3.33;;
77423;SDS011;66494;47.172;14.678;2023-02-28T00:59:25;5.75;;;3.63;;
77423;SDS011;66494;47.172;14.678;2023-02-28T01:00:25;4.97;;;3.22;;
77423;SDS011;66494;47.172;14.678;2023-02-28T01:02:25;4.72;;;3.47;;
77423;SDS011;66494;47.172;14.678;2023-02-28T01:04:26;3.55;;;2.65;;
77423;SDS011;66494;47.172;14.678;2023-02-28T01:05:26;4.15;;;2.83;;
77423;SDS011;66494;47.172;14.678;2023-02-28T01:06:27;4.13;;;3.15;;
77423;SDS011;66494;47.172;14.678;2023-02-28T01:07:27;5.88;;;3.00;;
77423;SDS011;66494;47.172;14.678;2023-02-28T01:08:27;5.90;;;4.13;;
77423;SDS011;66494;47.172;14.678;2023-02-28T01:10:27;5.60;;;3.70;;
77423;SDS011;66494;47.172;14.678;2023-02-28T01:11:31;4.68;;;3.05;;
77423;SDS011;66494;47.172;14.678;2023-02-28T01:12:32;3.95;;;2.97;;
77423;SDS011;66494;47.172;14.678;2023-02-28T01:14:32;4.53;;;2.70;;
77423;SDS011;66494;47.172;14.678;2023-02-28T01:16:33;4.75;;;3.33;;
77423;SDS011;66494;47.172;14.678;2023-02-28T01:18:33;5.18;;;3.17;;
77423;SDS011;66494;47.172;14.678;2023-02-28T01:19:33;6.35;;;3.50;;
77423;SDS011;66494;47.172;14.678;2023-02-28T01:20:35;6.75;;;3.10;;
77423;SDS011;66494;47.172;14.678;2023-02-28T01:21:36;6.35;;;3.40;;
77423;SDS011;66494;47.172;14.678;2023-02-28T01:22:36;4.93;;;3.72;;
77423;SDS011;66494;47.172;14.678;2023-02-28T01:24:37;4.32;;;2.63;;
77423;SDS011;66494;47.172;14.678;2023-02-28T01:25:37;4.55;;;3.30;;
77423;SDS011;66494;47.172;14.678;2023-02-28T01:26:37;5.68;;;3.63;;
77423;SDS011;66494;47.172;14.678;2023-02-28T01:27:38;6.97;;;3.65;;
77423;SDS011;66494;47.172;14.678;2023-02-28T01:28:39;5.47;;;3.80;;
77423;SDS011;66494;47.172;14.678;2023-02-28T01:29:39;6.93;;;4.28;;
77423;SDS011;66494;47.172;14.678;2023-02-28T01:31:40;4.10;;;3.05;;
77423;SDS011;66494;47.172;14.678;2023-02-28T01:33:40;7.20;;;3.95;;
77423;SDS011;66494;47.172;14.678;2023-02-28T01:35:41;3.50;;;2.83;;
77423;SDS011;66494;47.172;14.678;2023-02-28T01:36:41;4.45;;;3.50;;
77423;SDS011;66494;47.172;14.678;2023-02-28T01:38:42;4.65;;;2.83;;
77423;SDS011;66494;47.172;14.678;2023-02-28T01:39:42;7.35;;;3.75;;
77423;SDS011;66494;47.172;14.678;2023-02-28T01:41:42;5.25;;;2.88;;
77423;SDS011;66494;47.172;14.678;2023-02-28T01:42:43;5.90;;;2.85;;
77423;SDS011;66494;47.172;14.678;2023-02-28T01:45:43;5.60;;;3.78;;
77423;SDS011;66494;47.172;14.678;2023-02-28T01:47:44;3.60;;;2.60;;
77423;SDS011;66494;47.172;14.678;2023-02-28T01:49:46;4.80;;;3.42;;
77423;SDS011;66494;47.172;14.678;2023-02-28T01:51:51;4.83;;;2.30;;
77423;SDS011;66494;47.172;14.678;2023-02-28T01:52:52;3.33;;;2.80;;
77423;SDS011;66494;47.172;14.678;2023-02-28T01:54:01;4.75;;;2.97;;
77423;SDS011;66494;47.172;14.678;2023-02-28T01:55:03;4.72;;;3.42;;
77423;SDS011;66494;47.172;14.678;2023-02-28T01:56:04;4.35;;;3.08;;
77423;SDS011;66494;47.172;14.678;2023-02-28T01:57:07;3.42;;;3.13;;
77423;SDS011;66494;47.172;14.678;2023-02-28T01:58:09;5.30;;;3.40;;
77423;SDS011;66494;47.172;14.678;2023-02-28T01:59:09;4.40;;;3.22;;
77423;SDS011;66494;47.172;14.678;2023-02-28T02:00:12;4.47;;;2.65;;
77423;SDS011;66494;47.172;14.678;2023-02-28T02:01:14;6.53;;;3.05;;
77423;SDS011;66494;47.172;14.678;2023-02-28T02:02:21;5.30;;;3.75;;
77423;SDS011;66494;47.172;14.678;2023-02-28T02:03:23;7.20;;;3.53;;
77423;SDS011;66494;47.172;14.678;2023-02-28T02:04:23;5.30;;;2.97;;
77423;SDS011;66494;47.172;14.678;2023-02-28T02:05:26;5.78;;;3.40;;
77423;SDS011;66494;47.172;14.678;2023-02-28T02:06:38;5.10;;;3.38;;
77423;SDS011;66494;47.172;14.678;2023-02-28T02:07:40;6.05;;;3.28;;
77423;SDS011;66494;47.172;14.678;2023-02-28T02:09:41;3.93;;;2.33;;
77423;SDS011;66494;47.172;14.678;2023-02-28T02:11:42;4.07;;;2.38;;
77423;SDS011;66494;47.172;14.678;2023-02-28T02:14:07;6.78;;;3.22;;
77423;SDS011;66494;47.172;14.678;2023-02-28T02:15:12;4.88;;;3.13;;
77423;SDS011;66494;47.172;14.678;2023-02-28T02:16:43;4.50;;;3.10;;
77423;SDS011;66494;47.172;14.678;2023-02-28T02:17:42;4.75;;;2.58;;
77423;SDS011;66494;47.172;14.678;2023-02-28T02:25:03;4.53;;;2.80;;
77423;SDS011;66494;47.172;14.678;2023-02-28T02:26:28;4.07;;;2.88;;
77423;SDS011;66494;47.172;14.678;2023-02-28T02:34:22;3.70;;;2.80;;
77423;SDS011;66494;47.172;14.678;2023-02-28T02:36:25;6.28;;;3.50;;
77423;SDS011;66494;47.172;14.678;2023-02-28T02:37:34;4.22;;;3.22;;
77423;SDS011;66494;47.172;14.678;2023-02-28T02:38:41;4.20;;;3.05;;
77423;SDS011;66494;47.172;14.678;2023-02-28T02:42:14;5.32;;;2.80;;
77423;SDS011;66494;47.172;14.678;2023-02-28T02:43:16;3.13;;;2.50;;
77423;SDS011;66494;47.172;14.678;2023-02-28T02:44:23;6.50;;;3.55;;
77423;SDS011;66494;47.172;14.678;2023-02-28T02:45:29;5.90;;;3.50;;
77423;SDS011;66494;47.172;14.678;2023-02-28T02:46:42;5.10;;;3.03;;
77423;SDS011;66494;47.172;14.678;2023-02-28T02:47:43;5.05;;;3.47;;
77423;SDS011;66494;47.172;14.678;2023-02-28T02:48:45;5.22;;;3.58;;
77423;SDS011;66494;47.172;14.678;2023-02-28T02:50:49;2.67;;;2.07;;
77423;SDS011;66494;47.172;14.678;2023-02-28T02:51:50;6.22;;;3.10;;
77423;SDS011;66494;47.172;14.678;2023-02-28T02:52:53;4.50;;;3.17;;
77423;SDS011;66494;47.172;14.678;2023-02-28T02:53:56;7.65;;;3.60;;
77423;SDS011;66494;47.172;14.678;2023-02-28T02:54:58;4.75;;;3.10;;
77423;SDS011;66494;47.172;14.678;2023-02-28T02:55:59;5.50;;;3.45;;
77423;SDS011;66494;47.172;14.678;2023-02-28T02:57:04;6.75;;;3.80;;
77423;SDS011;66494;47.172;14.678;2023-02-28T02:58:06;3.92;;;3.10;;
77423;SDS011;66494;47.172;14.678;2023-02-28T02:59:07;6.85;;;3.55;;
77423;SDS011;66494;47.172;14.678;2023-02-28T03:00:09;5.30;;;3.35;;
77423;SDS011;66494;47.172;14.678;2023-02-28T03:01:17;5.80;;;3.20;;
77423;SDS011;66494;47.172;14.678;2023-02-28T03:02:27;4.95;;;3.38;;
77423;SDS011;66494;47.172;14.678;2023-02-28T03:03:34;5.32;;;3.88;;
77423;SDS011;66494;47.172;14.678;2023-02-28T03:04:36;7.95;;;4.03;;
77423;SDS011;66494;47.172;14.678;2023-02-28T03:05:45;6.20;;;3.55;;
77423;SDS011;66494;47.172;14.678;2023-02-28T03:06:47;6.85;;;2.92;;
77423;SDS011;66494;47.172;14.678;2023-02-28T03:07:47;4.97;;;3.53;;
77423;SDS011;66494;47.172;14.678;2023-02-28T03:09:51;3.88;;;2.88;;
77423;SDS011;66494;47.172;14.678;2023-02-28T03:10:56;5.82;;;4.07;;
77423;SDS011;66494;47.172;14.678;2023-02-28T03:11:57;6.50;;;3.55;;
77423;SDS011;66494;47.172;14.678;2023-02-28T03:13:04;5.18;;;3.17;;
77423;SDS011;66494;47.172;14.678;2023-02-28T03:15:53;5.95;;;3.00;;
77423;SDS011;66494;47.172;14.678;2023-02-28T03:24:07;4.97;;;3.90;;
77423;SDS011;66494;47.172;14.678;2023-02-28T03:24:56;6.07;;;3.58;;
77423;SDS011;66494;47.172;14.678;2023-02-28T03:26:02;3.78;;;2.78;;
77423;SDS011;66494;47.172;14.678;2023-02-28T03:27:06;6.38;;;3.13;;
77423;SDS011;66494;47.172;14.678;2023-02-28T03:29:13;5.28;;;3.60;;
77423;SDS011;66494;47.172;14.678;2023-02-28T03:31:26;6.45;;;4.10;;
77423;SDS011;66494;47.172;14.678;2023-02-28T03:32:29;6.97;;;4.05;;
77423;SDS011;66494;47.172;14.678;2023-02-28T03:33:33;6.25;;;3.40;;
77423;SDS011;66494;47.172;14.678;2023-02-28T03:34:36;6.50;;;3.30;;
77423;SDS011;66494;47.172;14.678;2023-02-28T03:35:48;7.20;;;3.53;;
77423;SDS011;66494;47.172;14.678;2023-02-28T03:36:51;4.38;;;3.28;;
77423;SDS011;66494;47.172;14.678;2023-02-28T03:37:56;10.70;;;3.75;;
77423;SDS011;66494;47.172;14.678;2023-02-28T03:39:07;7.90;;;3.50;;
77423;SDS011;66494;47.172;14.678;2023-02-28T03:40:11;5.00;;;3.53;;
77423;SDS011;66494;47.172;14.678;2023-02-28T03:41:20;5.30;;;3.55;;
77423;SDS011;66494;47.172;14.678;2023-02-28T03:42:22;6.43;;;3.45;;
77423;SDS011;66494;47.172;14.678;2023-02-28T03:43:25;7.72;;;3.17;;
77423;SDS011;66494;47.172;14.678;2023-02-28T03:44:32;5.10;;;3.75;;
77423;SDS011;66494;47.172;14.678;2023-02-28T03:45:35;3.90;;;3.30;;
77423;SDS011;66494;47.172;14.678;2023-02-28T03:46:37;5.22;;;3.72;;
77423;SDS011;66494;47.172;14.678;2023-02-28T03:47:40;7.45;;;3.53;;
77423;SDS011;66494;47.172;14.678;2023-02-28T03:48:48;5.03;;;3.42;;
77423;SDS011;66494;47.172;14.678;2023-02-28T03:49:52;4.22;;;3.28;;
77423;SDS011;66494;47.172;14.678;2023-02-28T03:50:54;3.60;;;2.95;;
77423;SDS011;66494;47.172;14.678;2023-02-28T03:51:55;5.53;;;3.63;;
77423;SDS011;66494;47.172;14.678;2023-02-28T03:53:02;4.47;;;3.72;;
77423;SDS011;66494;47.172;14.678;2023-02-28T03:54:09;4.43;;;3.25;;
77423;SDS011;66494;47.172;14.678;2023-02-28T03:55:12;5.50;;;3.53;;
77423;SDS011;66494;47.172;14.678;2023-02-28T03:56:17;5.20;;;3.63;;
77423;SDS011;66494;47.172;14.678;2023-02-28T03:57:20;7.30;;;3.78;;
77423;SDS011;66494;47.172;14.678;2023-02-28T03:58:35;6.40;;;3.35;;
77423;SDS011;66494;47.172;14.678;2023-02-28T03:59:38;5.75;;;3.67;;
77423;SDS011;66494;47.172;14.678;2023-02-28T04:00:40;5.68;;;4.15;;
77423;SDS011;66494;47.172;14.678;2023-02-28T04:01:45;6.00;;;3.78;;
77423;SDS011;66494;47.172;14.678;2023-02-28T04:02:47;8.48;;;4.75;;
77423;SDS011;66494;47.172;14.678;2023-02-28T04:03:52;7.45;;;4.28;;
77423;SDS011;66494;47.172;14.678;2023-02-28T04:04:52;5.70;;;3.72;;
77423;SDS011;66494;47.172;14.678;2023-02-28T04:05:54;7.95;;;4.70;;
77423;SDS011;66494;47.172;14.678;2023-02-28T04:07:54;6.20;;;4.03;;
77423;SDS011;66494;47.172;14.678;2023-02-28T04:09:03;7.90;;;3.80;;
77423;SDS011;66494;47.172;14.678;2023-02-28T04:10:04;7.85;;;5.18;;
77423;SDS011;66494;47.172;14.678;2023-02-28T04:11:08;7.30;;;4.30;;
77423;SDS011;66494;47.172;14.678;2023-02-28T04:12:13;7.78;;;4.78;;
77423;SDS011;66494;47.172;14.678;2023-02-28T04:13:13;5.13;;;4.25;;
77423;SDS011;66494;47.172;14.678;2023-02-28T04:14:14;6.43;;;4.22;;
77423;SDS011;66494;47.172;14.678;2023-02-28T04:15:15;9.63;;;4.63;;
77423;SDS011;66494;47.172;14.678;2023-02-28T04:17:15;6.15;;;3.50;;
77423;SDS011;66494;47.172;14.678;2023-02-28T04:18:15;8.68;;;4.22;;
77423;SDS011;66494;47.172;14.678;2023-02-28T04:19:16;13.38;;;4.10;;
77423;SDS011;66494;47.172;14.678;2023-02-28T04:20:16;6.93;;;3.92;;
77423;SDS011;66494;47.172;14.678;2023-02-28T04:22:20;5.55;;;3.83;;
77423;SDS011;66494;47.172;14.678;2023-02-28T04:23:20;7.45;;;4.50;;
77423;SDS011;66494;47.172;14.678;2023-02-28T04:24:22;9.88;;;3.75;;
77423;SDS011;66494;47.172;14.678;2023-02-28T04:25:22;8.63;;;3.90;;
77423;SDS011;66494;47.172;14.678;2023-02-28T04:26:22;8.02;;;4.50;;
77423;SDS011;66494;47.172;14.678;2023-02-28T04:27:22;7.47;;;4.53;;
77423;SDS011;66494;47.172;14.678;2023-02-28T04:28:23;7.15;;;3.80;;
77423;SDS011;66494;47.172;14.678;2023-02-28T04:29:24;5.63;;;3.97;;
77423;SDS011;66494;47.172;14.678;2023-02-28T04:30:24;10.02;;;3.75;;
77423;SDS011;66494;47.172;14.678;2023-02-28T04:31:25;9.40;;;4.20;;
77423;SDS011;66494;47.172;14.678;2023-02-28T04:33:25;8.45;;;4.18;;
77423;SDS011;66494;47.172;14.678;2023-02-28T04:35:26;8.38;;;4.13;;
77423;SDS011;66494;47.172;14.678;2023-02-28T04:37:26;7.22;;;3.60;;
77423;SDS011;66494;47.172;14.678;2023-02-28T04:38:38;7.32;;;3.78;;
77423;SDS011;66494;47.172;14.678;2023-02-28T04:39:39;4.88;;;3.78;;
77423;SDS011;66494;47.172;14.678;2023-02-28T04:40:39;5.60;;;3.60;;
77423;SDS011;66494;47.172;14.678;2023-02-28T04:42:39;7.45;;;4.10;;
77423;SDS011;66494;47.172;14.678;2023-02-28T04:44:40;8.73;;;4.05;;
77423;SDS011;66494;47.172;14.678;2023-02-28T04:46:41;7.28;;;4.30;;
77423;SDS011;66494;47.172;14.678;2023-02-28T04:48:41;9.00;;;4.33;;
77423;SDS011;66494;47.172;14.678;2023-02-28T04:50:41;7.05;;;4.25;;
77423;SDS011;66494;47.172;14.678;2023-02-28T04:51:42;6.53;;;4.13;;
77423;SDS011;66494;47.172;14.678;2023-02-28T04:52:42;5.82;;;3.83;;
77423;SDS011;66494;47.172;14.678;2023-02-28T04:53:42;7.65;;;4.30;;
77423;SDS011;66494;47.172;14.678;2023-02-28T04:54:42;7.07;;;4.97;;
77423;SDS011;66494;47.172;14.678;2023-02-28T04:55:43;6.03;;;4.40;;
77423;SDS011;66494;47.172;14.678;2023-02-28T04:56:43;8.05;;;4.55;;
77423;SDS011;66494;47.172;14.678;2023-02-28T04:57:43;7.85;;;4.85;;
77423;SDS011;66494;47.172;14.678;2023-02-28T04:58:44;7.47;;;4.07;;
77423;SDS011;66494;47.172;14.678;2023-02-28T05:00:44;6.22;;;4.63;;
77423;SDS011;66494;47.172;14.678;2023-02-28T05:01:45;6.07;;;3.95;;
77423;SDS011;66494;47.172;14.678;2023-02-28T05:02:46;6.72;;;3.47;;
77423;SDS011;66494;47.172;14.678;2023-02-28T05:03:46;8.52;;;4.43;;
77423;SDS011;66494;47.172;14.678;2023-02-28T05:04:47;7.88;;;4.65;;
77423;SDS011;66494;47.172;14.678;2023-02-28T05:05:47;7.78;;;4.30;;
77423;SDS011;66494;47.172;14.678;2023-02-28T05:06:47;10.98;;;4.68;;
77423;SDS011;66494;47.172;14.678;2023-02-28T05:08:48;10.00;;;3.47;;
77423;SDS011;66494;47.172;14.678;2023-02-28T05:10:48;6.07;;;3.85;;
77423;SDS011;66494;47.172;14.678;2023-02-28T05:11:48;7.85;;;3.85;;
77423;SDS011;66494;47.172;14.678;2023-02-28T05:12:48;7.10;;;4.50;;
77423;SDS011;66494;47.172;14.678;2023-02-28T05:13:49;8.55;;;5.30;;
77423;SDS011;66494;47.172;14.678;2023-02-28T05:14:49;8.60;;;4.10;;
77423;SDS011;66494;47.172;14.678;2023-02-28T05:15:49;6.65;;;4.63;;
77423;SDS011;66494;47.172;14.678;2023-02-28T05:16:50;7.10;;;4.38;;
77423;SDS011;66494;47.172;14.678;2023-02-28T05:17:50;8.15;;;4.78;;
77423;SDS011;66494;47.172;14.678;2023-02-28T05:18:50;8.40;;;4.22;;
77423;SDS011;66494;47.172;14.678;2023-02-28T05:19:50;7.93;;;4.65;;
77423;SDS011;66494;47.172;14.678;2023-02-28T05:20:51;11.07;;;5.70;;
77423;SDS011;66494;47.172;14.678;2023-02-28T05:21:52;7.82;;;4.95;;
77423;SDS011;66494;47.172;14.678;2023-02-28T05:22:52;8.40;;;5.03;;
77423;SDS011;66494;47.172;14.678;2023-02-28T05:23:53;7.75;;;4.70;;
77423;SDS011;66494;47.172;14.678;2023-02-28T05:25:53;5.47;;;3.72;;
77423;SDS011;66494;47.172;14.678;2023-02-28T05:26:54;8.85;;;4.20;;
77423;SDS011;66494;47.172;14.678;2023-02-28T05:27:54;9.20;;;4.78;;
77423;SDS011;66494;47.172;14.678;2023-02-28T05:28:54;7.85;;;3.85;;
77423;SDS011;66494;47.172;14.678;2023-02-28T05:29:55;9.82;;;4.72;;
77423;SDS011;66494;47.172;14.678;2023-02-28T05:31:55;5.95;;;3.75;;
77423;SDS011;66494;47.172;14.678;2023-02-28T05:32:55;8.98;;;4.95;;
77423;SDS011;66494;47.172;14.678;2023-02-28T05:33:56;7.78;;;4.43;;
77423;SDS011;66494;47.172;14.678;2023-02-28T05:35:56;7.43;;;4.45;;
77423;SDS011;66494;47.172;14.678;2023-02-28T05:36:56;8.75;;;5.63;;
77423;SDS011;66494;47.172;14.678;2023-02-28T05:37:57;8.10;;;4.95;;
77423;SDS011;66494;47.172;14.678;2023-02-28T05:38:57;8.77;;;5.05;;
77423;SDS011;66494;47.172;14.678;2023-02-28T05:39:57;11.50;;;5.82;;
77423;SDS011;66494;47.172;14.678;2023-02-28T05:40:57;8.65;;;5.05;;
77423;SDS011;66494;47.172;14.678;2023-02-28T05:41:57;6.80;;;4.80;;
77423;SDS011;66494;47.172;14.678;2023-02-28T05:43:58;7.38;;;4.55;;
77423;SDS011;66494;47.172;14.678;2023-02-28T05:44:59;9.00;;;4.72;;
77423;SDS011;66494;47.172;14.678;2023-02-28T05:46:02;10.60;;;4.10;;
77423;SDS011;66494;47.172;14.678;2023-02-28T05:47:02;11.50;;;4.40;;
77423;SDS011;66494;47.172;14.678;2023-02-28T05:48:02;8.48;;;4.93;;
77423;SDS011;66494;47.172;14.678;2023-02-28T05:49:02;10.95;;;5.32;;
77423;SDS011;66494;47.172;14.678;2023-02-28T05:50:03;10.05;;;5.05;;
77423;SDS011;66494;47.172;14.678;2023-02-28T05:51:04;6.05;;;4.47;;
77423;SDS011;66494;47.172;14.678;2023-02-28T05:53:05;7.77;;;4.17;;
77423;SDS011;66494;47.172;14.678;2023-02-28T05:55:05;6.72;;;4.75;;
77423;SDS011;66494;47.172;14.678;2023-02-28T05:56:06;8.77;;;4.18;;
77423;SDS011;66494;47.172;14.678;2023-02-28T05:58:06;8.05;;;4.63;;
77423;SDS011;66494;47.172;14.678;2023-02-28T06:00:06;8.50;;;4.30;;
77423;SDS011;66494;47.172;14.678;2023-02-28T06:02:26;6.70;;;4.55;;
77423;SDS011;66494;47.172;14.678;2023-02-28T06:03:26;8.15;;;4.30;;
77423;SDS011;66494;47.172;14.678;2023-02-28T06:04:26;15.98;;;5.30;;
77423;SDS011;66494;47.172;14.678;2023-02-28T06:05:27;13.88;;;5.85;;
77423;SDS011;66494;47.172;14.678;2023-02-28T06:06:28;9.30;;;4.63;;
77423;SDS011;66494;47.172;14.678;2023-02-28T06:07:29;9.63;;;3.97;;
77423;SDS011;66494;47.172;14.678;2023-02-28T06:08:29;8.15;;;4.00;;
77423;SDS011;66494;47.172;14.678;2023-02-28T06:09:29;7.00;;;4.38;;
77423;SDS011;66494;47.172;14.678;2023-02-28T06:10:30;6.70;;;4.15;;
77423;SDS011;66494;47.172;14.678;2023-02-28T06:12:30;8.00;;;4.90;;
77423;SDS011;66494;47.172;14.678;2023-02-28T06:14:31;11.95;;;5.72;;
77423;SDS011;66494;47.172;14.678;2023-02-28T06:16:32;9.83;;;5.13;;
77423;SDS011;66494;47.172;14.678;2023-02-28T06:18:33;7.57;;;4.77;;
77423;SDS011;66494;47.172;14.678;2023-02-28T06:19:33;6.78;;;4.68;;
77423;SDS011;66494;47.172;14.678;2023-02-28T06:20:33;8.27;;;5.13;;
77423;SDS011;66494;47.172;14.678;2023-02-28T06:21:34;6.60;;;3.95;;
77423;SDS011;66494;47.172;14.678;2023-02-28T06:22:35;7.18;;;4.18;;
77423;SDS011;66494;47.172;14.678;2023-02-28T06:24:35;6.10;;;4.10;;
77423;SDS011;66494;47.172;14.678;2023-02-28T06:26:36;6.05;;;4.03;;
77423;SDS011;66494;47.172;14.678;2023-02-28T06:27:36;8.00;;;4.93;;
77423;SDS011;66494;47.172;14.678;2023-02-28T06:28:36;7.85;;;4.93;;
77423;SDS011;66494;47.172;14.678;2023-02-28T06:29:37;7.18;;;4.93;;
77423;SDS011;66494;47.172;14.678;2023-02-28T06:30:39;7.03;;;4.00;;
77423;SDS011;66494;47.172;14.678;2023-02-28T06:31:39;13.40;;;6.03;;
77423;SDS011;66494;47.172;14.678;2023-02-28T06:32:40;7.55;;;5.22;;
77423;SDS011;66494;47.172;14.678;2023-02-28T06:33:40;12.45;;;6.25;;
77423;SDS011;66494;47.172;14.678;2023-02-28T06:34:41;10.88;;;5.50;;
77423;SDS011;66494;47.172;14.678;2023-02-28T06:35:43;11.90;;;6.25;;
77423;SDS011;66494;47.172;14.678;2023-02-28T06:36:43;13.55;;;7.72;;
77423;SDS011;66494;47.172;14.678;2023-02-28T06:37:44;10.82;;;7.20;;
77423;SDS011;66494;47.172;14.678;2023-02-28T06:38:44;11.75;;;6.47;;
77423;SDS011;66494;47.172;14.678;2023-02-28T06:40:44;27.02;;;12.40;;
77423;SDS011;66494;47.172;14.678;2023-02-28T06:41:52;35.65;;;14.65;;
77423;SDS011;66494;47.172;14.678;2023-02-28T06:42:52;35.10;;;14.75;;
77423;SDS011;66494;47.172;14.678;2023-02-28T06:43:53;27.92;;;13.43;;
77423;SDS011;66494;47.172;14.678;2023-02-28T06:44:53;29.40;;;11.38;;
77423;SDS011;66494;47.172;14.678;2023-02-28T06:46:53;17.38;;;8.43;;
77423;SDS011;66494;47.172;14.678;2023-02-28T06:47:53;10.70;;;6.13;;
77423;SDS011;66494;47.172;14.678;2023-02-28T06:48:54;12.15;;;5.70;;
77423;SDS011;66494;47.172;14.678;2023-02-28T06:51:04;11.68;;;7.43;;
77423;SDS011;66494;47.172;14.678;2023-02-28T06:52:05;17.65;;;7.30;;
77423;SDS011;66494;47.172;14.678;2023-02-28T06:53:05;20.00;;;8.52;;
77423;SDS011;66494;47.172;14.678;2023-02-28T06:54:05;17.70;;;7.45;;
77423;SDS011;66494;47.172;14.678;2023-02-28T06:55:08;28.50;;;11.35;;
77423;SDS011;66494;47.172;14.678;2023-02-28T06:56:10;29.85;;;13.75;;
77423;SDS011;66494;47.172;14.678;2023-02-28T06:57:11;27.52;;;11.98;;
77423;SDS011;66494;47.172;14.678;2023-02-28T06:58:11;17.95;;;8.82;;
77423;SDS011;66494;47.172;14.678;2023-02-28T06:59:14;19.90;;;7.85;;
77423;SDS011;66494;47.172;14.678;2023-02-28T07:00:15;14.10;;;8.00;;
77423;SDS011;66494;47.172;14.678;2023-02-28T07:01:15;18.13;;;9.15;;
77423;SDS011;66494;47.172;14.678;2023-02-28T07:02:16;20.02;;;7.90;;
77423;SDS011;66494;47.172;14.678;2023-02-28T07:03:16;19.83;;;8.20;;
77423;SDS011;66494;47.172;14.678;2023-02-28T07:04:18;16.38;;;7.32;;
77423;SDS011;66494;47.172;14.678;2023-02-28T07:05:18;21.13;;;10.45;;
77423;SDS011;66494;47.172;14.678;2023-02-28T07:06:19;25.42;;;13.18;;
77423;SDS011;66494;47.172;14.678;2023-02-28T07:07:20;25.80;;;11.85;;
77423;SDS011;66494;47.172;14.678;2023-02-28T07:08:20;27.25;;;11.50;;
77423;SDS011;66494;47.172;14.678;2023-02-28T07:09:20;20.17;;;10.25;;
77423;SDS011;66494;47.172;14.678;2023-02-28T07:11:21;15.27;;;7.60;;
77423;SDS011;66494;47.172;14.678;2023-02-28T07:12:25;12.30;;;6.45;;
77423;SDS011;66494;47.172;14.678;2023-02-28T07:13:25;13.18;;;6.32;;
77423;SDS011;66494;47.172;14.678;2023-02-28T07:15:26;8.95;;;4.78;;
77423;SDS011;66494;47.172;14.678;2023-02-28T07:16:26;10.32;;;4.82;;
77423;SDS011;66494;47.172;14.678;2023-02-28T07:17:26;8.70;;;4.93;;
77423;SDS011;66494;47.172;14.678;2023-02-28T07:19:27;10.50;;;4.78;;
77423;SDS011;66494;47.172;14.678;2023-02-28T07:20:28;12.35;;;6.35;;
77423;SDS011;66494;47.172;14.678;2023-02-28T07:21:28;15.32;;;7.47;;
77423;SDS011;66494;47.172;14.678;2023-02-28T07:22:28;13.73;;;6.85;;
77423;SDS011;66494;47.172;14.678;2023-02-28T07:23:28;11.93;;;6.07;;
77423;SDS011;66494;47.172;14.678;2023-02-28T07:25:29;9.02;;;4.93;;
77423;SDS011;66494;47.172;14.678;2023-02-28T07:27:29;11.30;;;4.63;;
77423;SDS011;66494;47.172;14.678;2023-02-28T07:29:30;10.70;;;4.88;;
77423;SDS011;66494;47.172;14.678;2023-02-28T07:31:30;9.20;;;4.40;;
77423;SDS011;66494;47.172;14.678;2023-02-28T07:33:30;11.35;;;4.85;;
77423;SDS011;66494;47.172;14.678;2023-02-28T07:34:31;9.27;;;5.22;;
77423;SDS011;66494;47.172;14.678;2023-02-28T07:35:31;10.65;;;5.88;;
77423;SDS011;66494;47.172;14.678;2023-02-28T07:36:31;11.35;;;5.85;;
77423;SDS011;66494;47.172;14.678;2023-02-28T07:37:32;16.75;;;7.03;;
77423;SDS011;66494;47.172;14.678;2023-02-28T07:38:36;20.00;;;7.78;;
77423;SDS011;66494;47.172;14.678;2023-02-28T07:39:37;16.70;;;6.70;;
77423;SDS011;66494;47.172;14.678;2023-02-28T07:40:37;14.57;;;8.02;;
77423;SDS011;66494;47.172;14.678;2023-02-28T07:42:43;13.68;;;5.80;;
77423;SDS011;66494;47.172;14.678;2023-02-28T07:43:43;11.40;;;5.85;;
77423;SDS011;66494;47.172;14.678;2023-02-28T07:44:44;11.43;;;7.40;;